sensor_id;sensor_type;location;lat;lon;timestamp;P1;durP1;ratioP1;P2;durP2;ratioP2
12846;SDS011;6492;48.128;8.320;2023-07-29T00:03:05;1.53;;;1.43;;
12846;SDS011;6492;48.128;8.320;2023-07-29T00:07:11;1.43;;;1.33;;
12846;SDS011;6492;48.128;8.320;2023-07-29T00:11:14;2.33;;;1.30;;
12846;SDS011;6492;48.128;8.320;2023-07-29T00:15:16;1.87;;;1.43;;
12846;SDS011;6492;48.128;8.320;2023-07-29T00:19:18;1.90;;;1.70;;
12846;SDS011;6492;48.128;8.320;2023-07-29T00:23:23;3.13;;;1.50;;
12846;SDS011;6492;48.128;8.320;2023-07-29T00:27:26;2.40;;;1.67;;
12846;SDS011;6492;48.128;8.320;2023-07-29T00:31:28;1.50;;;1.40;;
12846;SDS011;6492;48.128;8.320;2023-07-29T00:35:30;2.90;;;1.60;;
12846;SDS011;6492;48.128;8.320;2023-07-29T00:39:39;1.60;;;1.23;;
12846;SDS011;6492;48.128;8.320;2023-07-29T00:43:42;1.40;;;1.30;;
12846;SDS011;6492;48.128;8.320;2023-07-29T00:47:44;2.00;;;1.40;;
12846;SDS011;6492;48.128;8.320;2023-07-29T00:51:46;2.17;;;1.70;;
12846;SDS011;6492;48.128;8.320;2023-07-29T00:55:48;1.87;;;1.60;;
12846;SDS011;6492;48.128;8.320;2023-07-29T00:59:51;2.97;;;1.70;;
12846;SDS011;6492;48.128;8.320;2023-07-29T01:03:53;2.67;;;1.63;;
12846;SDS011;6492;48.128;8.320;2023-07-29T01:07:57;2.60;;;1.80;;
12846;SDS011;6492;48.128;8.320;2023-07-29T01:12:07;2.40;;;2.07;;
12846;SDS011;6492;48.128;8.320;2023-07-29T01:16:15;3.40;;;2.00;;
12846;SDS011;6492;48.128;8.320;2023-07-29T01:20:22;1.53;;;1.40;;
12846;SDS011;6492;48.128;8.320;2023-07-29T01:24:27;3.00;;;1.70;;
12846;SDS011;6492;48.128;8.320;2023-07-29T01:28:29;4.87;;;1.80;;
12846;SDS011;6492;48.128;8.320;2023-07-29T01:32:34;2.00;;;1.80;;
12846;SDS011;6492;48.128;8.320;2023-07-29T01:36:38;1.70;;;1.53;;
12846;SDS011;6492;48.128;8.320;2023-07-29T01:40:44;1.80;;;1.60;;
12846;SDS011;6492;48.128;8.320;2023-07-29T01:44:46;1.90;;;1.80;;
12846;SDS011;6492;48.128;8.320;2023-07-29T01:48:48;2.53;;;1.83;;
12846;SDS011;6492;48.128;8.320;2023-07-29T01:52:50;2.27;;;2.07;;
12846;SDS011;6492;48.128;8.320;2023-07-29T01:56:53;1.73;;;1.60;;
12846;SDS011;6492;48.128;8.320;2023-07-29T02:00:55;1.90;;;1.80;;
12846;SDS011;6492;48.128;8.320;2023-07-29T02:04:57;2.70;;;1.60;;
12846;SDS011;6492;48.128;8.320;2023-07-29T02:08:58;3.13;;;1.60;;
12846;SDS011;6492;48.128;8.320;2023-07-29T02:17:08;1.43;;;1.33;;
12846;SDS011;6492;48.128;8.320;2023-07-29T02:21:10;1.40;;;1.30;;
12846;SDS011;6492;48.128;8.320;2023-07-29T02:25:12;1.47;;;1.37;;
12846;SDS011;6492;48.128;8.320;2023-07-29T02:29:15;2.23;;;1.90;;
12846;SDS011;6492;48.128;8.320;2023-07-29T02:33:16;2.33;;;2.10;;
12846;SDS011;6492;48.128;8.320;2023-07-29T02:37:18;2.47;;;2.17;;
12846;SDS011;6492;48.128;8.320;2023-07-29T02:41:20;3.13;;;2.10;;
12846;SDS011;6492;48.128;8.320;2023-07-29T02:45:23;1.97;;;1.80;;
12846;SDS011;6492;48.128;8.320;2023-07-29T02:49:25;1.60;;;1.50;;
12846;SDS011;6492;48.128;8.320;2023-07-29T02:53:27;2.70;;;1.97;;
12846;SDS011;6492;48.128;8.320;2023-07-29T02:57:28;2.63;;;1.87;;
12846;SDS011;6492;48.128;8.320;2023-07-29T03:01:31;2.17;;;1.97;;
12846;SDS011;6492;48.128;8.320;2023-07-29T03:05:33;2.20;;;2.00;;
12846;SDS011;6492;48.128;8.320;2023-07-29T03:09:36;2.23;;;2.03;;
12846;SDS011;6492;48.128;8.320;2023-07-29T03:13:37;2.30;;;2.10;;
12846;SDS011;6492;48.128;8.320;2023-07-29T03:17:40;2.80;;;2.10;;
12846;SDS011;6492;48.128;8.320;2023-07-29T03:21:43;2.23;;;2.03;;
12846;SDS011;6492;48.128;8.320;2023-07-29T03:25:48;2.27;;;2.07;;
12846;SDS011;6492;48.128;8.320;2023-07-29T03:29:51;2.33;;;2.13;;
12846;SDS011;6492;48.128;8.320;2023-07-29T03:33:54;1.90;;;1.80;;
12846;SDS011;6492;48.128;8.320;2023-07-29T03:37:56;3.07;;;2.23;;
12846;SDS011;6492;48.128;8.320;2023-07-29T03:41:58;3.53;;;2.13;;
12846;SDS011;6492;48.128;8.320;2023-07-29T03:46:00;2.50;;;2.10;;
12846;SDS011;6492;48.128;8.320;2023-07-29T03:50:03;2.50;;;2.23;;
12846;SDS011;6492;48.128;8.320;2023-07-29T03:54:06;2.23;;;2.00;;
12846;SDS011;6492;48.128;8.320;2023-07-29T03:58:08;2.57;;;2.37;;
12846;SDS011;6492;48.128;8.320;2023-07-29T04:02:09;2.67;;;2.30;;
12846;SDS011;6492;48.128;8.320;2023-07-29T04:06:12;2.43;;;2.20;;
12846;SDS011;6492;48.128;8.320;2023-07-29T04:10:14;2.37;;;2.17;;
12846;SDS011;6492;48.128;8.320;2023-07-29T04:14:16;2.10;;;1.90;;
12846;SDS011;6492;48.128;8.320;2023-07-29T04:18:18;2.40;;;2.10;;
12846;SDS011;6492;48.128;8.320;2023-07-29T04:22:21;2.30;;;2.10;;
12846;SDS011;6492;48.128;8.320;2023-07-29T04:26:23;3.80;;;2.20;;
12846;SDS011;6492;48.128;8.320;2023-07-29T04:30:24;2.30;;;2.10;;
12846;SDS011;6492;48.128;8.320;2023-07-29T04:34:26;2.30;;;2.10;;
12846;SDS011;6492;48.128;8.320;2023-07-29T04:38:31;3.63;;;2.33;;
12846;SDS011;6492;48.128;8.320;2023-07-29T04:42:34;2.40;;;2.20;;
12846;SDS011;6492;48.128;8.320;2023-07-29T04:46:38;2.50;;;2.30;;
12846;SDS011;6492;48.128;8.320;2023-07-29T04:50:39;2.33;;;2.13;;
12846;SDS011;6492;48.128;8.320;2023-07-29T04:54:43;2.30;;;2.10;;
12846;SDS011;6492;48.128;8.320;2023-07-29T04:58:44;2.50;;;2.30;;
12846;SDS011;6492;48.128;8.320;2023-07-29T05:02:46;3.47;;;2.47;;
12846;SDS011;6492;48.128;8.320;2023-07-29T05:06:48;3.20;;;2.30;;
12846;SDS011;6492;48.128;8.320;2023-07-29T05:10:52;3.73;;;2.43;;
12846;SDS011;6492;48.128;8.320;2023-07-29T05:14:54;3.87;;;2.83;;
12846;SDS011;6492;48.128;8.320;2023-07-29T05:18:58;2.73;;;2.53;;
12846;SDS011;6492;48.128;8.320;2023-07-29T05:23:00;2.63;;;2.43;;
12846;SDS011;6492;48.128;8.320;2023-07-29T05:27:03;2.97;;;2.60;;
12846;SDS011;6492;48.128;8.320;2023-07-29T05:31:05;2.90;;;2.60;;
12846;SDS011;6492;48.128;8.320;2023-07-29T05:35:07;2.63;;;2.40;;
12846;SDS011;6492;48.128;8.320;2023-07-29T05:39:10;3.13;;;2.40;;
12846;SDS011;6492;48.128;8.320;2023-07-29T05:43:14;2.97;;;2.60;;
12846;SDS011;6492;48.128;8.320;2023-07-29T05:47:16;3.77;;;2.90;;
12846;SDS011;6492;48.128;8.320;2023-07-29T05:51:17;2.33;;;2.13;;
12846;SDS011;6492;48.128;8.320;2023-07-29T05:55:19;2.13;;;1.97;;
12846;SDS011;6492;48.128;8.320;2023-07-29T05:59:22;5.20;;;3.13;;
12846;SDS011;6492;48.128;8.320;2023-07-29T06:03:25;3.97;;;2.47;;
12846;SDS011;6492;48.128;8.320;2023-07-29T06:07:27;3.47;;;2.60;;
12846;SDS011;6492;48.128;8.320;2023-07-29T06:11:30;3.13;;;2.20;;
12846;SDS011;6492;48.128;8.320;2023-07-29T06:15:33;3.73;;;2.57;;
12846;SDS011;6492;48.128;8.320;2023-07-29T06:19:35;3.03;;;2.63;;
12846;SDS011;6492;48.128;8.320;2023-07-29T06:23:37;2.73;;;2.43;;
12846;SDS011;6492;48.128;8.320;2023-07-29T06:27:39;3.43;;;2.63;;
12846;SDS011;6492;48.128;8.320;2023-07-29T06:31:42;2.60;;;2.13;;
12846;SDS011;6492;48.128;8.320;2023-07-29T06:35:43;2.77;;;2.47;;
12846;SDS011;6492;48.128;8.320;2023-07-29T06:39:45;2.40;;;2.20;;
12846;SDS011;6492;48.128;8.320;2023-07-29T06:43:47;2.57;;;2.33;;
12846;SDS011;6492;48.128;8.320;2023-07-29T06:47:50;3.13;;;2.83;;
12846;SDS011;6492;48.128;8.320;2023-07-29T06:51:52;3.00;;;2.60;;
12846;SDS011;6492;48.128;8.320;2023-07-29T06:55:54;2.60;;;2.40;;
12846;SDS011;6492;48.128;8.320;2023-07-29T06:59:58;3.20;;;2.43;;
12846;SDS011;6492;48.128;8.320;2023-07-29T07:04:01;3.20;;;2.13;;
12846;SDS011;6492;48.128;8.320;2023-07-29T07:08:03;2.97;;;1.90;;
12846;SDS011;6492;48.128;8.320;2023-07-29T07:12:05;2.47;;;2.20;;
12846;SDS011;6492;48.128;8.320;2023-07-29T07:16:08;2.97;;;2.40;;
12846;SDS011;6492;48.128;8.320;2023-07-29T07:20:13;3.90;;;2.57;;
12846;SDS011;6492;48.128;8.320;2023-07-29T07:24:15;2.57;;;1.90;;
12846;SDS011;6492;48.128;8.320;2023-07-29T07:28:16;2.77;;;2.00;;
12846;SDS011;6492;48.128;8.320;2023-07-29T07:32:21;2.20;;;2.00;;
12846;SDS011;6492;48.128;8.320;2023-07-29T07:36:25;2.37;;;2.17;;
12846;SDS011;6492;48.128;8.320;2023-07-29T07:40:26;2.47;;;2.27;;
12846;SDS011;6492;48.128;8.320;2023-07-29T07:44:28;2.83;;;2.40;;
12846;SDS011;6492;48.128;8.320;2023-07-29T07:48:30;2.70;;;2.50;;
12846;SDS011;6492;48.128;8.320;2023-07-29T07:52:34;2.77;;;2.57;;
12846;SDS011;6492;48.128;8.320;2023-07-29T07:56:36;2.85;;;2.45;;
12846;SDS011;6492;48.128;8.320;2023-07-29T08:00:38;3.30;;;3.00;;
12846;SDS011;6492;48.128;8.320;2023-07-29T08:04:39;2.67;;;2.47;;
12846;SDS011;6492;48.128;8.320;2023-07-29T08:08:43;2.70;;;2.50;;
12846;SDS011;6492;48.128;8.320;2023-07-29T08:12:45;2.70;;;2.50;;
12846;SDS011;6492;48.128;8.320;2023-07-29T08:16:47;3.50;;;3.20;;
12846;SDS011;6492;48.128;8.320;2023-07-29T08:20:56;2.95;;;2.65;;
12846;SDS011;6492;48.128;8.320;2023-07-29T08:25:00;2.70;;;2.50;;
12846;SDS011;6492;48.128;8.320;2023-07-29T08:29:02;3.33;;;2.88;;
12846;SDS011;6492;48.128;8.320;2023-07-29T08:33:03;3.20;;;2.90;;
12846;SDS011;6492;48.128;8.320;2023-07-29T08:37:05;2.83;;;2.63;;
12846;SDS011;6492;48.128;8.320;2023-07-29T08:41:13;3.63;;;2.78;;
12846;SDS011;6492;48.128;8.320;2023-07-29T08:45:17;2.83;;;2.60;;
12846;SDS011;6492;48.128;8.320;2023-07-29T08:53:26;3.58;;;3.17;;
12846;SDS011;6492;48.128;8.320;2023-07-29T08:57:32;3.30;;;3.00;;
12846;SDS011;6492;48.128;8.320;2023-07-29T09:01:33;2.92;;;2.70;;
12846;SDS011;6492;48.128;8.320;2023-07-29T09:05:36;3.55;;;2.90;;
12846;SDS011;6492;48.128;8.320;2023-07-29T09:09:38;3.30;;;3.00;;
12846;SDS011;6492;48.128;8.320;2023-07-29T09:13:41;3.50;;;3.20;;
12846;SDS011;6492;48.128;8.320;2023-07-29T09:17:43;3.10;;;2.80;;
12846;SDS011;6492;48.128;8.320;2023-07-29T09:21:45;4.20;;;3.00;;
12846;SDS011;6492;48.128;8.320;2023-07-29T09:25:48;4.15;;;3.50;;
12846;SDS011;6492;48.128;8.320;2023-07-29T09:29:52;3.38;;;3.08;;
12846;SDS011;6492;48.128;8.320;2023-07-29T09:33:55;3.83;;;3.50;;
12846;SDS011;6492;48.128;8.320;2023-07-29T09:37:59;5.07;;;3.38;;
12846;SDS011;6492;48.128;8.320;2023-07-29T09:42:00;4.47;;;3.17;;
12846;SDS011;6492;48.128;8.320;2023-07-29T09:46:04;3.40;;;3.10;;
12846;SDS011;6492;48.128;8.320;2023-07-29T09:50:07;3.40;;;3.10;;
12846;SDS011;6492;48.128;8.320;2023-07-29T09:58:19;2.75;;;2.55;;
12846;SDS011;6492;48.128;8.320;2023-07-29T10:02:28;3.22;;;3.00;;
12846;SDS011;6492;48.128;8.320;2023-07-29T10:06:30;3.22;;;2.92;;
12846;SDS011;6492;48.128;8.320;2023-07-29T10:10:33;2.78;;;2.58;;
12846;SDS011;6492;48.128;8.320;2023-07-29T10:14:35;3.33;;;3.03;;
12846;SDS011;6492;48.128;8.320;2023-07-29T10:18:40;3.35;;;3.00;;
12846;SDS011;6492;48.128;8.320;2023-07-29T10:22:43;7.75;;;4.75;;
12846;SDS011;6492;48.128;8.320;2023-07-29T10:26:49;3.72;;;3.28;;
12846;SDS011;6492;48.128;8.320;2023-07-29T10:30:51;3.10;;;2.80;;
12846;SDS011;6492;48.128;8.320;2023-07-29T10:34:55;3.75;;;3.28;;
12846;SDS011;6492;48.128;8.320;2023-07-29T10:38:57;5.15;;;2.85;;
12846;SDS011;6492;48.128;8.320;2023-07-29T10:42:59;2.80;;;2.60;;
12846;SDS011;6492;48.128;8.320;2023-07-29T10:47:10;2.90;;;2.70;;
12846;SDS011;6492;48.128;8.320;2023-07-29T10:51:23;2.70;;;2.50;;
12846;SDS011;6492;48.128;8.320;2023-07-29T10:55:31;2.70;;;2.50;;
12846;SDS011;6492;48.128;8.320;2023-07-29T10:59:35;3.90;;;2.60;;
12846;SDS011;6492;48.128;8.320;2023-07-29T11:03:37;2.67;;;2.47;;
12846;SDS011;6492;48.128;8.320;2023-07-29T11:07:46;3.17;;;2.83;;
12846;SDS011;6492;48.128;8.320;2023-07-29T11:11:49;3.40;;;2.22;;
12846;SDS011;6492;48.128;8.320;2023-07-29T11:15:51;2.80;;;2.60;;
12846;SDS011;6492;48.128;8.320;2023-07-29T11:19:54;2.33;;;2.13;;
12846;SDS011;6492;48.128;8.320;2023-07-29T11:24:02;2.97;;;2.50;;
12846;SDS011;6492;48.128;8.320;2023-07-29T11:28:04;2.58;;;2.38;;
12846;SDS011;6492;48.128;8.320;2023-07-29T11:32:06;2.97;;;2.55;;
12846;SDS011;6492;48.128;8.320;2023-07-29T11:36:19;2.55;;;2.35;;
12846;SDS011;6492;48.128;8.320;2023-07-29T11:40:22;3.17;;;2.30;;
12846;SDS011;6492;48.128;8.320;2023-07-29T11:44:24;2.47;;;2.28;;
12846;SDS011;6492;48.128;8.320;2023-07-29T11:48:27;2.45;;;2.25;;
12846;SDS011;6492;48.128;8.320;2023-07-29T11:52:31;2.55;;;2.35;;
12846;SDS011;6492;48.128;8.320;2023-07-29T11:56:35;3.15;;;2.50;;
12846;SDS011;6492;48.128;8.320;2023-07-29T12:00:37;3.17;;;2.50;;
12846;SDS011;6492;48.128;8.320;2023-07-29T12:04:39;2.75;;;2.55;;
12846;SDS011;6492;48.128;8.320;2023-07-29T12:08:42;3.97;;;2.53;;
12846;SDS011;6492;48.128;8.320;2023-07-29T12:12:46;3.47;;;2.40;;
12846;SDS011;6492;48.128;8.320;2023-07-29T12:16:55;2.65;;;2.45;;
12846;SDS011;6492;48.128;8.320;2023-07-29T12:21:00;2.75;;;2.55;;
12846;SDS011;6492;48.128;8.320;2023-07-29T12:25:03;3.75;;;2.55;;
12846;SDS011;6492;48.128;8.320;2023-07-29T12:29:14;3.55;;;2.25;;
12846;SDS011;6492;48.128;8.320;2023-07-29T12:33:32;2.60;;;2.40;;
12846;SDS011;6492;48.128;8.320;2023-07-29T12:37:35;3.78;;;3.17;;
12846;SDS011;6492;48.128;8.320;2023-07-29T12:41:38;2.70;;;2.50;;
12846;SDS011;6492;48.128;8.320;2023-07-29T12:45:41;2.70;;;2.50;;
12846;SDS011;6492;48.128;8.320;2023-07-29T12:49:44;2.78;;;2.40;;
12846;SDS011;6492;48.128;8.320;2023-07-29T12:53:46;2.63;;;2.42;;
12846;SDS011;6492;48.128;8.320;2023-07-29T12:57:49;2.55;;;2.35;;
12846;SDS011;6492;48.128;8.320;2023-07-29T13:01:52;3.75;;;2.50;;
12846;SDS011;6492;48.128;8.320;2023-07-29T13:05:55;4.57;;;2.60;;
12846;SDS011;6492;48.128;8.320;2023-07-29T13:10:11;2.85;;;2.35;;
12846;SDS011;6492;48.128;8.320;2023-07-29T13:14:13;2.45;;;2.25;;
12846;SDS011;6492;48.128;8.320;2023-07-29T13:22:28;2.38;;;2.17;;
12846;SDS011;6492;48.128;8.320;2023-07-29T13:26:30;2.80;;;2.38;;
12846;SDS011;6492;48.128;8.320;2023-07-29T13:30:33;2.58;;;2.38;;
12846;SDS011;6492;48.128;8.320;2023-07-29T13:34:38;2.83;;;2.25;;
12846;SDS011;6492;48.128;8.320;2023-07-29T13:38:40;2.75;;;2.42;;
12846;SDS011;6492;48.128;8.320;2023-07-29T13:42:42;2.83;;;2.60;;
12846;SDS011;6492;48.128;8.320;2023-07-29T13:46:44;3.72;;;2.80;;
12846;SDS011;6492;48.128;8.320;2023-07-29T13:55:29;2.42;;;2.22;;
12846;SDS011;6492;48.128;8.320;2023-07-29T13:59:38;4.38;;;2.33;;
12846;SDS011;6492;48.128;8.320;2023-07-29T14:03:47;2.47;;;2.20;;
12846;SDS011;6492;48.128;8.320;2023-07-29T14:07:48;2.10;;;1.90;;
12846;SDS011;6492;48.128;8.320;2023-07-29T14:11:59;2.15;;;1.95;;
12846;SDS011;6492;48.128;8.320;2023-07-29T14:16:02;2.80;;;2.47;;
12846;SDS011;6492;48.128;8.320;2023-07-29T14:20:05;2.60;;;2.33;;
12846;SDS011;6492;48.128;8.320;2023-07-29T14:24:14;2.40;;;2.20;;
12846;SDS011;6492;48.128;8.320;2023-07-29T14:28:17;3.15;;;2.38;;
12846;SDS011;6492;48.128;8.320;2023-07-29T14:32:19;2.50;;;2.30;;
12846;SDS011;6492;48.128;8.320;2023-07-29T14:36:39;2.40;;;2.20;;
12846;SDS011;6492;48.128;8.320;2023-07-29T14:40:41;2.60;;;2.30;;
12846;SDS011;6492;48.128;8.320;2023-07-29T14:44:46;2.50;;;2.30;;
12846;SDS011;6492;48.128;8.320;2023-07-29T14:48:48;2.50;;;2.30;;
12846;SDS011;6492;48.128;8.320;2023-07-29T14:52:51;2.70;;;2.50;;
12846;SDS011;6492;48.128;8.320;2023-07-29T14:56:52;2.50;;;2.30;;
12846;SDS011;6492;48.128;8.320;2023-07-29T15:00:56;2.58;;;2.38;;
12846;SDS011;6492;48.128;8.320;2023-07-29T15:04:58;2.60;;;2.40;;
12846;SDS011;6492;48.128;8.320;2023-07-29T15:08:59;2.60;;;2.40;;
12846;SDS011;6492;48.128;8.320;2023-07-29T15:13:01;3.17;;;2.83;;
12846;SDS011;6492;48.128;8.320;2023-07-29T15:17:05;2.72;;;2.20;;
12846;SDS011;6492;48.128;8.320;2023-07-29T15:21:07;3.95;;;2.38;;
12846;SDS011;6492;48.128;8.320;2023-07-29T15:25:09;2.95;;;2.55;;
12846;SDS011;6492;48.128;8.320;2023-07-29T15:29:11;2.90;;;2.70;;
12846;SDS011;6492;48.128;8.320;2023-07-29T15:33:15;2.70;;;2.40;;
12846;SDS011;6492;48.128;8.320;2023-07-29T15:37:17;2.60;;;2.40;;
12846;SDS011;6492;48.128;8.320;2023-07-29T15:41:19;2.60;;;2.40;;
12846;SDS011;6492;48.128;8.320;2023-07-29T15:45:21;3.13;;;2.83;;
12846;SDS011;6492;48.128;8.320;2023-07-29T15:49:24;3.33;;;2.65;;
12846;SDS011;6492;48.128;8.320;2023-07-29T15:53:27;3.60;;;3.00;;
12846;SDS011;6492;48.128;8.320;2023-07-29T15:57:29;5.57;;;3.25;;
12846;SDS011;6492;48.128;8.320;2023-07-29T16:01:32;3.67;;;2.57;;
12846;SDS011;6492;48.128;8.320;2023-07-29T16:05:36;3.40;;;2.92;;
12846;SDS011;6492;48.128;8.320;2023-07-29T16:09:38;3.70;;;3.20;;
12846;SDS011;6492;48.128;8.320;2023-07-29T16:13:40;3.50;;;2.72;;
12846;SDS011;6492;48.128;8.320;2023-07-29T16:17:42;3.40;;;3.10;;
12846;SDS011;6492;48.128;8.320;2023-07-29T16:21:45;3.03;;;2.83;;
12846;SDS011;6492;48.128;8.320;2023-07-29T16:25:47;3.00;;;2.70;;
12846;SDS011;6492;48.128;8.320;2023-07-29T16:29:48;3.47;;;3.05;;
12846;SDS011;6492;48.128;8.320;2023-07-29T16:33:51;2.80;;;2.60;;
12846;SDS011;6492;48.128;8.320;2023-07-29T16:37:54;3.67;;;2.95;;
12846;SDS011;6492;48.128;8.320;2023-07-29T16:41:57;3.80;;;3.50;;
12846;SDS011;6492;48.128;8.320;2023-07-29T16:46:00;3.00;;;2.80;;
12846;SDS011;6492;48.128;8.320;2023-07-29T16:50:02;3.95;;;3.10;;
12846;SDS011;6492;48.128;8.320;2023-07-29T16:54:06;3.40;;;3.10;;
12846;SDS011;6492;48.128;8.320;2023-07-29T16:58:07;4.07;;;3.10;;
12846;SDS011;6492;48.128;8.320;2023-07-29T17:02:09;3.22;;;2.92;;
12846;SDS011;6492;48.128;8.320;2023-07-29T17:06:11;3.10;;;2.90;;
12846;SDS011;6492;48.128;8.320;2023-07-29T17:10:14;3.90;;;3.20;;
12846;SDS011;6492;48.128;8.320;2023-07-29T17:14:17;4.25;;;3.30;;
12846;SDS011;6492;48.128;8.320;2023-07-29T17:18:19;3.05;;;2.85;;
12846;SDS011;6492;48.128;8.320;2023-07-29T17:22:21;4.88;;;3.75;;
12846;SDS011;6492;48.128;8.320;2023-07-29T17:26:24;3.35;;;3.05;;
12846;SDS011;6492;48.128;8.320;2023-07-29T17:30:27;3.17;;;2.80;;
12846;SDS011;6492;48.128;8.320;2023-07-29T17:34:29;3.60;;;3.28;;
12846;SDS011;6492;48.128;8.320;2023-07-29T17:38:30;5.30;;;3.80;;
12846;SDS011;6492;48.128;8.320;2023-07-29T17:42:34;3.75;;;3.20;;
12846;SDS011;6492;48.128;8.320;2023-07-29T17:46:36;5.03;;;3.17;;
12846;SDS011;6492;48.128;8.320;2023-07-29T17:50:38;3.72;;;3.40;;
12846;SDS011;6492;48.128;8.320;2023-07-29T17:54:47;3.50;;;3.20;;
12846;SDS011;6492;48.128;8.320;2023-07-29T17:58:50;3.73;;;3.40;;
12846;SDS011;6492;48.128;8.320;2023-07-29T18:02:52;3.60;;;3.30;;
12846;SDS011;6492;48.128;8.320;2023-07-29T18:06:56;3.90;;;3.23;;
12846;SDS011;6492;48.128;8.320;2023-07-29T18:11:04;3.47;;;3.17;;
12846;SDS011;6492;48.128;8.320;2023-07-29T18:15:08;3.10;;;2.80;;
12846;SDS011;6492;48.128;8.320;2023-07-29T18:19:10;3.80;;;3.40;;
12846;SDS011;6492;48.128;8.320;2023-07-29T18:23:21;3.53;;;3.23;;
12846;SDS011;6492;48.128;8.320;2023-07-29T18:27:24;3.83;;;3.43;;
12846;SDS011;6492;48.128;8.320;2023-07-29T18:31:34;4.00;;;3.60;;
12846;SDS011;6492;48.128;8.320;2023-07-29T18:35:39;3.40;;;3.10;;
12846;SDS011;6492;48.128;8.320;2023-07-29T18:39:44;3.40;;;2.80;;
12846;SDS011;6492;48.128;8.320;2023-07-29T18:43:45;3.23;;;2.93;;
12846;SDS011;6492;48.128;8.320;2023-07-29T18:47:48;3.67;;;3.10;;
12846;SDS011;6492;48.128;8.320;2023-07-29T18:51:50;3.30;;;2.97;;
12846;SDS011;6492;48.128;8.320;2023-07-29T18:55:53;4.03;;;3.20;;
12846;SDS011;6492;48.128;8.320;2023-07-29T18:59:57;3.43;;;3.13;;
12846;SDS011;6492;48.128;8.320;2023-07-29T19:04:01;3.50;;;3.20;;
12846;SDS011;6492;48.128;8.320;2023-07-29T19:08:04;3.70;;;3.17;;
12846;SDS011;6492;48.128;8.320;2023-07-29T19:12:08;3.23;;;2.93;;
12846;SDS011;6492;48.128;8.320;2023-07-29T19:16:10;3.23;;;2.93;;
12846;SDS011;6492;48.128;8.320;2023-07-29T19:20:13;3.10;;;2.80;;
12846;SDS011;6492;48.128;8.320;2023-07-29T19:24:16;3.93;;;2.90;;
12846;SDS011;6492;48.128;8.320;2023-07-29T19:28:18;3.47;;;3.17;;
12846;SDS011;6492;48.128;8.320;2023-07-29T19:32:19;3.17;;;2.87;;
12846;SDS011;6492;48.128;8.320;2023-07-29T19:36:23;2.90;;;2.60;;
12846;SDS011;6492;48.128;8.320;2023-07-29T19:40:25;3.17;;;2.87;;
12846;SDS011;6492;48.128;8.320;2023-07-29T19:44:35;3.33;;;3.00;;
12846;SDS011;6492;48.128;8.320;2023-07-29T19:48:37;4.70;;;4.30;;
12846;SDS011;6492;48.128;8.320;2023-07-29T19:52:40;3.50;;;3.20;;
12846;SDS011;6492;48.128;8.320;2023-07-29T19:56:44;3.63;;;3.17;;
12846;SDS011;6492;48.128;8.320;2023-07-29T20:00:55;3.50;;;3.20;;
12846;SDS011;6492;48.128;8.320;2023-07-29T20:04:57;3.30;;;3.00;;
12846;SDS011;6492;48.128;8.320;2023-07-29T20:09:04;3.70;;;3.40;;
12846;SDS011;6492;48.128;8.320;2023-07-29T20:13:06;3.73;;;3.03;;
12846;SDS011;6492;48.128;8.320;2023-07-29T20:17:08;3.13;;;2.87;;
12846;SDS011;6492;48.128;8.320;2023-07-29T20:21:10;3.80;;;3.50;;
12846;SDS011;6492;48.128;8.320;2023-07-29T20:25:18;3.50;;;3.20;;
12846;SDS011;6492;48.128;8.320;2023-07-29T20:29:20;4.47;;;3.33;;
12846;SDS011;6492;48.128;8.320;2023-07-29T20:33:22;3.23;;;2.93;;
12846;SDS011;6492;48.128;8.320;2023-07-29T20:37:24;3.83;;;3.00;;
12846;SDS011;6492;48.128;8.320;2023-07-29T20:41:27;3.67;;;3.30;;
12846;SDS011;6492;48.128;8.320;2023-07-29T20:45:30;3.37;;;3.07;;
12846;SDS011;6492;48.128;8.320;2023-07-29T20:49:32;3.93;;;3.40;;
12846;SDS011;6492;48.128;8.320;2023-07-29T20:53:35;3.40;;;2.90;;
12846;SDS011;6492;48.128;8.320;2023-07-29T20:57:39;3.67;;;3.20;;
12846;SDS011;6492;48.128;8.320;2023-07-29T21:01:41;3.30;;;3.00;;
12846;SDS011;6492;48.128;8.320;2023-07-29T21:05:43;3.20;;;2.90;;
12846;SDS011;6492;48.128;8.320;2023-07-29T21:09:46;3.30;;;3.00;;
12846;SDS011;6492;48.128;8.320;2023-07-29T21:13:49;3.27;;;2.70;;
12846;SDS011;6492;48.128;8.320;2023-07-29T21:17:51;2.87;;;2.63;;
12846;SDS011;6492;48.128;8.320;2023-07-29T21:21:53;2.60;;;2.40;;
12846;SDS011;6492;48.128;8.320;2023-07-29T21:25:54;3.17;;;2.87;;
12846;SDS011;6492;48.128;8.320;2023-07-29T21:29:57;3.23;;;2.93;;
12846;SDS011;6492;48.128;8.320;2023-07-29T21:33:59;3.00;;;2.80;;
12846;SDS011;6492;48.128;8.320;2023-07-29T21:38:07;3.00;;;2.70;;
12846;SDS011;6492;48.128;8.320;2023-07-29T21:42:08;3.47;;;2.60;;
12846;SDS011;6492;48.128;8.320;2023-07-29T21:46:12;2.83;;;2.60;;
12846;SDS011;6492;48.128;8.320;2023-07-29T21:50:15;2.57;;;2.37;;
12846;SDS011;6492;48.128;8.320;2023-07-29T21:54:17;2.50;;;2.30;;
12846;SDS011;6492;48.128;8.320;2023-07-29T21:58:19;2.73;;;2.53;;
12846;SDS011;6492;48.128;8.320;2023-07-29T22:02:22;2.47;;;2.27;;
12846;SDS011;6492;48.128;8.320;2023-07-29T22:06:24;2.60;;;2.20;;
12846;SDS011;6492;48.128;8.320;2023-07-29T22:10:25;2.63;;;2.43;;
12846;SDS011;6492;48.128;8.320;2023-07-29T22:14:27;2.60;;;2.40;;
12846;SDS011;6492;48.128;8.320;2023-07-29T22:18:30;2.60;;;2.40;;
12846;SDS011;6492;48.128;8.320;2023-07-29T22:22:32;2.77;;;2.57;;
12846;SDS011;6492;48.128;8.320;2023-07-29T22:26:34;2.60;;;2.40;;
12846;SDS011;6492;48.128;8.320;2023-07-29T22:30:35;2.70;;;2.50;;
12846;SDS011;6492;48.128;8.320;2023-07-29T22:34:39;2.50;;;2.30;;
12846;SDS011;6492;48.128;8.320;2023-07-29T22:38:42;3.10;;;2.80;;
12846;SDS011;6492;48.128;8.320;2023-07-29T22:42:44;2.67;;;2.47;;
12846;SDS011;6492;48.128;8.320;2023-07-29T22:46:45;2.50;;;2.30;;
12846;SDS011;6492;48.128;8.320;2023-07-29T22:50:49;3.27;;;2.07;;
12846;SDS011;6492;48.128;8.320;2023-07-29T22:54:50;2.90;;;2.57;;
12846;SDS011;6492;48.128;8.320;2023-07-29T22:58:52;2.70;;;2.40;;
12846;SDS011;6492;48.128;8.320;2023-07-29T23:02:54;2.77;;;2.57;;
12846;SDS011;6492;48.128;8.320;2023-07-29T23:06:57;2.90;;;2.50;;
12846;SDS011;6492;48.128;8.320;2023-07-29T23:11:00;2.60;;;2.30;;
12846;SDS011;6492;48.128;8.320;2023-07-29T23:15:03;2.63;;;2.43;;
12846;SDS011;6492;48.128;8.320;2023-07-29T23:19:05;3.10;;;2.73;;
12846;SDS011;6492;48.128;8.320;2023-07-29T23:23:08;2.93;;;2.70;;
12846;SDS011;6492;48.128;8.320;2023-07-29T23:27:10;3.60;;;2.50;;
12846;SDS011;6492;48.128;8.320;2023-07-29T23:31:12;2.50;;;2.30;;
12846;SDS011;6492;48.128;8.320;2023-07-29T23:35:14;3.57;;;2.50;;
12846;SDS011;6492;48.128;8.320;2023-07-29T23:39:17;2.83;;;2.40;;
12846;SDS011;6492;48.128;8.320;2023-07-29T23:43:19;2.63;;;2.40;;
12846;SDS011;6492;48.128;8.320;2023-07-29T23:47:21;2.40;;;2.20;;
12846;SDS011;6492;48.128;8.320;2023-07-29T23:51:23;2.60;;;2.40;;
12846;SDS011;6492;48.128;8.320;2023-07-29T23:55:26;2.60;;;2.40;;
12846;SDS011;6492;48.128;8.320;2023-07-29T23:59:27;2.57;;;2.33;;
